sensor_id;sensor_type;location;lat;lon;timestamp;pressure;altitude;pressure_sealevel;temperature;humidity
50774;BME280;36745;48.544;8.918;2023-05-22T00:00:23;96968.66;;;13.26;92.59
50774;BME280;36745;48.544;8.918;2023-05-22T00:03:42;96971.56;;;13.32;91.53
50774;BME280;36745;48.544;8.918;2023-05-22T00:07:02;96970.06;;;13.13;91.95
50774;BME280;36745;48.544;8.918;2023-05-22T00:10:22;96973.16;;;13.06;92.25
50774;BME280;36745;48.544;8.918;2023-05-22T00:13:42;96958.53;;;13.05;92.72
50774;BME280;36745;48.544;8.918;2023-05-22T00:17:02;96969.31;;;13.03;92.96
50774;BME280;36745;48.544;8.918;2023-05-22T00:20:22;96966.41;;;12.97;93.12
50774;BME280;36745;48.544;8.918;2023-05-22T00:23:42;96970.06;;;13.03;92.66
50774;BME280;36745;48.544;8.918;2023-05-22T00:27:01;96959.94;;;12.91;93.00
50774;BME280;36745;48.544;8.918;2023-05-22T00:30:21;96964.56;;;12.85;93.18
50774;BME280;36745;48.544;8.918;2023-05-22T00:33:41;96957.19;;;12.91;92.06
50774;BME280;36745;48.544;8.918;2023-05-22T00:37:01;96943.97;;;12.86;91.90
50774;BME280;36745;48.544;8.918;2023-05-22T00:40:21;96951.66;;;12.82;91.84
50774;BME280;36745;48.544;8.918;2023-05-22T00:43:40;96946.78;;;12.68;92.81
50774;BME280;36745;48.544;8.918;2023-05-22T00:47:00;96951.41;;;12.62;93.57
50774;BME280;36745;48.544;8.918;2023-05-22T00:50:20;96952.16;;;12.63;94.92
50774;BME280;36745;48.544;8.918;2023-05-22T00:53:40;96955.72;;;12.63;95.93
50774;BME280;36745;48.544;8.918;2023-05-22T00:57:00;96951.38;;;12.71;96.52
50774;BME280;36745;48.544;8.918;2023-05-22T01:00:20;96961.81;;;12.76;96.68
50774;BME280;36745;48.544;8.918;2023-05-22T01:03:41;96959.06;;;12.76;95.84
50774;BME280;36745;48.544;8.918;2023-05-22T01:07:03;96970.75;;;12.62;95.25
50774;BME280;36745;48.544;8.918;2023-05-22T01:10:25;96966.91;;;12.50;95.01
50774;BME280;36745;48.544;8.918;2023-05-22T01:14:13;96970.16;;;12.40;95.71
50774;BME280;36745;48.544;8.918;2023-05-22T01:28:41;96975.97;;;12.33;94.99
50774;BME280;36745;48.544;8.918;2023-05-22T01:32:12;96978.13;;;12.38;94.43
50774;BME280;36745;48.544;8.918;2023-05-22T01:35:34;96977.19;;;12.23;95.29
50774;BME280;36745;48.544;8.918;2023-05-22T01:38:57;96982.13;;;12.18;95.30
50774;BME280;36745;48.544;8.918;2023-05-22T01:42:20;96988.09;;;12.17;95.45
50774;BME280;36745;48.544;8.918;2023-05-22T01:45:40;96980.09;;;12.10;96.50
50774;BME280;36745;48.544;8.918;2023-05-22T01:49:00;96974.75;;;12.25;96.81
50774;BME280;36745;48.544;8.918;2023-05-22T01:52:55;96978.13;;;12.19;96.17
50774;BME280;36745;48.544;8.918;2023-05-22T01:56:23;96979.03;;;12.16;96.59
50774;BME280;36745;48.544;8.918;2023-05-22T02:03:14;96976.59;;;12.37;98.88
50774;BME280;36745;48.544;8.918;2023-05-22T02:06:36;96971.69;;;12.50;98.12
50774;BME280;36745;48.544;8.918;2023-05-22T02:09:57;96972.75;;;12.34;97.71
50774;BME280;36745;48.544;8.918;2023-05-22T02:13:17;96974.91;;;12.39;98.02
50774;BME280;36745;48.544;8.918;2023-05-22T02:16:37;96981.81;;;12.44;98.25
50774;BME280;36745;48.544;8.918;2023-05-22T02:19:57;96975.84;;;12.45;97.85
50774;BME280;36745;48.544;8.918;2023-05-22T02:23:17;96981.81;;;12.44;97.70
50774;BME280;36745;48.544;8.918;2023-05-22T02:26:37;96980.59;;;12.54;97.53
50774;BME280;36745;48.544;8.918;2023-05-22T02:29:58;96994.72;;;12.56;98.38
50774;BME280;36745;48.544;8.918;2023-05-22T02:33:18;96984.75;;;12.68;98.47
50774;BME280;36745;48.544;8.918;2023-05-22T02:36:37;96993.81;;;12.68;97.60
50774;BME280;36745;48.544;8.918;2023-05-22T02:39:58;96991.34;;;12.61;97.39
50774;BME280;36745;48.544;8.918;2023-05-22T02:43:17;96988.25;;;12.59;98.05
50774;BME280;36745;48.544;8.918;2023-05-22T02:46:37;96985.66;;;12.65;98.38
50774;BME280;36745;48.544;8.918;2023-05-22T02:49:57;97000.56;;;12.67;98.78
50774;BME280;36745;48.544;8.918;2023-05-22T02:53:17;96998.72;;;12.73;97.55
50774;BME280;36745;48.544;8.918;2023-05-22T02:56:37;97000.22;;;12.74;97.58
50774;BME280;36745;48.544;8.918;2023-05-22T02:59:57;97005.47;;;12.72;98.62
50774;BME280;36745;48.544;8.918;2023-05-22T03:03:17;97002.41;;;12.79;98.71
50774;BME280;36745;48.544;8.918;2023-05-22T03:06:37;97004.38;;;12.70;98.34
50774;BME280;36745;48.544;8.918;2023-05-22T03:09:57;96996.41;;;12.63;98.97
50774;BME280;36745;48.544;8.918;2023-05-22T03:13:17;97002.25;;;12.65;98.55
50774;BME280;36745;48.544;8.918;2023-05-22T03:16:37;97009.47;;;12.62;99.06
50774;BME280;36745;48.544;8.918;2023-05-22T03:19:57;97007.94;;;12.61;98.36
50774;BME280;36745;48.544;8.918;2023-05-22T03:23:16;97015.31;;;12.46;98.96
50774;BME280;36745;48.544;8.918;2023-05-22T03:26:39;97009.16;;;12.51;99.76
50774;BME280;36745;48.544;8.918;2023-05-22T03:30:01;97004.84;;;12.50;98.49
50774;BME280;36745;48.544;8.918;2023-05-22T03:33:20;97009.63;;;12.40;98.85
50774;BME280;36745;48.544;8.918;2023-05-22T03:36:40;97008.25;;;12.36;99.10
50774;BME280;36745;48.544;8.918;2023-05-22T03:40:00;97010.84;;;12.30;99.69
50774;BME280;36745;48.544;8.918;2023-05-22T03:43:20;97003.00;;;12.38;98.48
50774;BME280;36745;48.544;8.918;2023-05-22T03:46:40;96994.25;;;12.30;97.95
50774;BME280;36745;48.544;8.918;2023-05-22T03:50:00;96998.09;;;12.33;97.59
50774;BME280;36745;48.544;8.918;2023-05-22T03:53:20;96996.09;;;12.24;97.82
50774;BME280;36745;48.544;8.918;2023-05-22T03:56:40;97003.59;;;12.14;98.68
50774;BME280;36745;48.544;8.918;2023-05-22T04:00:00;96995.78;;;12.13;98.18
50774;BME280;36745;48.544;8.918;2023-05-22T04:03:28;97000.53;;;12.12;98.23
50774;BME280;36745;48.544;8.918;2023-05-22T04:06:47;97007.59;;;12.13;99.08
50774;BME280;36745;48.544;8.918;2023-05-22T04:10:08;96998.22;;;12.11;98.89
50774;BME280;36745;48.544;8.918;2023-05-22T04:13:27;96991.91;;;12.10;98.78
50774;BME280;36745;48.544;8.918;2023-05-22T04:16:49;96996.38;;;12.08;99.56
50774;BME280;36745;48.544;8.918;2023-05-22T04:20:09;96993.47;;;12.11;99.58
50774;BME280;36745;48.544;8.918;2023-05-22T04:23:29;96991.63;;;12.17;100.00
50774;BME280;36745;48.544;8.918;2023-05-22T04:26:49;96992.84;;;12.26;100.00
50774;BME280;36745;48.544;8.918;2023-05-22T04:30:09;96993.03;;;12.40;100.00
50774;BME280;36745;48.544;8.918;2023-05-22T04:33:29;96996.56;;;12.50;100.00
50774;BME280;36745;48.544;8.918;2023-05-22T04:36:52;97014.69;;;12.60;100.00
50774;BME280;36745;48.544;8.918;2023-05-22T04:40:12;97011.28;;;12.74;100.00
50774;BME280;36745;48.544;8.918;2023-05-22T04:43:33;97007.00;;;12.82;100.00
50774;BME280;36745;48.544;8.918;2023-05-22T04:46:54;97012.38;;;12.86;100.00
50774;BME280;36745;48.544;8.918;2023-05-22T04:50:15;97013.56;;;13.03;100.00
50774;BME280;36745;48.544;8.918;2023-05-22T04:53:35;97016.81;;;13.11;100.00
50774;BME280;36745;48.544;8.918;2023-05-22T04:56:56;97019.13;;;13.21;100.00
50774;BME280;36745;48.544;8.918;2023-05-22T05:00:17;97025.22;;;13.34;100.00
50774;BME280;36745;48.544;8.918;2023-05-22T05:03:37;97025.66;;;13.42;100.00
50774;BME280;36745;48.544;8.918;2023-05-22T05:06:58;97016.41;;;13.54;100.00
50774;BME280;36745;48.544;8.918;2023-05-22T05:10:18;97023.13;;;13.62;100.00
50774;BME280;36745;48.544;8.918;2023-05-22T05:13:37;97017.53;;;13.80;100.00
50774;BME280;36745;48.544;8.918;2023-05-22T05:16:57;97023.91;;;13.96;100.00
50774;BME280;36745;48.544;8.918;2023-05-22T05:20:17;97022.63;;;14.06;100.00
50774;BME280;36745;48.544;8.918;2023-05-22T05:23:37;97022.56;;;14.15;100.00
50774;BME280;36745;48.544;8.918;2023-05-22T05:26:57;97023.81;;;14.14;100.00
50774;BME280;36745;48.544;8.918;2023-05-22T05:30:16;97023.16;;;14.19;100.00
50774;BME280;36745;48.544;8.918;2023-05-22T05:33:37;97036.31;;;14.33;100.00
50774;BME280;36745;48.544;8.918;2023-05-22T05:36:57;97023.38;;;14.39;100.00
50774;BME280;36745;48.544;8.918;2023-05-22T05:40:17;97025.03;;;14.46;100.00
50774;BME280;36745;48.544;8.918;2023-05-22T05:43:37;97029.50;;;14.43;100.00
50774;BME280;36745;48.544;8.918;2023-05-22T05:46:56;97016.81;;;14.51;100.00
50774;BME280;36745;48.544;8.918;2023-05-22T05:50:16;97021.09;;;14.52;100.00
50774;BME280;36745;48.544;8.918;2023-05-22T05:53:36;97028.41;;;14.64;100.00
50774;BME280;36745;48.544;8.918;2023-05-22T05:56:56;97023.44;;;14.68;100.00
50774;BME280;36745;48.544;8.918;2023-05-22T06:00:16;97033.41;;;14.75;99.92
50774;BME280;36745;48.544;8.918;2023-05-22T06:03:36;97033.81;;;14.83;100.00
50774;BME280;36745;48.544;8.918;2023-05-22T06:06:56;97034.97;;;14.91;100.00
50774;BME280;36745;48.544;8.918;2023-05-22T06:10:16;97036.16;;;14.99;100.00
50774;BME280;36745;48.544;8.918;2023-05-22T06:13:36;97039.97;;;15.01;100.00
50774;BME280;36745;48.544;8.918;2023-05-22T06:16:56;97036.94;;;15.14;100.00
50774;BME280;36745;48.544;8.918;2023-05-22T06:20:16;97050.53;;;15.27;100.00
50774;BME280;36745;48.544;8.918;2023-05-22T06:23:35;97045.97;;;15.38;100.00
50774;BME280;36745;48.544;8.918;2023-05-22T06:26:55;97045.22;;;15.52;100.00
50774;BME280;36745;48.544;8.918;2023-05-22T06:30:15;97047.31;;;15.58;99.86
50774;BME280;36745;48.544;8.918;2023-05-22T06:33:35;97049.59;;;15.74;100.00
50774;BME280;36745;48.544;8.918;2023-05-22T06:36:55;97050.88;;;15.93;100.00
50774;BME280;36745;48.544;8.918;2023-05-22T06:40:15;97044.78;;;15.89;99.47
50774;BME280;36745;48.544;8.918;2023-05-22T06:43:35;97046.28;;;16.05;100.00
50774;BME280;36745;48.544;8.918;2023-05-22T06:46:56;97048.91;;;16.28;99.92
50774;BME280;36745;48.544;8.918;2023-05-22T06:50:16;97045.66;;;16.50;100.00
50774;BME280;36745;48.544;8.918;2023-05-22T06:53:36;97043.63;;;16.91;100.00
50774;BME280;36745;48.544;8.918;2023-05-22T06:56:56;97047.00;;;17.21;100.00
50774;BME280;36745;48.544;8.918;2023-05-22T07:00:16;97041.84;;;17.40;99.50
50774;BME280;36745;48.544;8.918;2023-05-22T07:03:36;97047.16;;;17.38;97.70
50774;BME280;36745;48.544;8.918;2023-05-22T07:06:56;97056.25;;;17.33;97.36
50774;BME280;36745;48.544;8.918;2023-05-22T07:10:15;97056.97;;;17.33;97.35
50774;BME280;36745;48.544;8.918;2023-05-22T07:13:35;97055.25;;;17.61;97.59
50774;BME280;36745;48.544;8.918;2023-05-22T07:16:55;97065.59;;;17.87;97.64
50774;BME280;36745;48.544;8.918;2023-05-22T07:20:15;97071.72;;;17.91;96.50
50774;BME280;36745;48.544;8.918;2023-05-22T07:23:35;97072.50;;;17.91;96.00
50774;BME280;36745;48.544;8.918;2023-05-22T07:26:55;97068.97;;;17.96;95.46
50774;BME280;36745;48.544;8.918;2023-05-22T07:30:14;97070.53;;;17.97;95.00
50774;BME280;36745;48.544;8.918;2023-05-22T07:33:34;97071.50;;;17.94;95.00
50774;BME280;36745;48.544;8.918;2023-05-22T07:36:54;97071.50;;;17.94;94.66
50774;BME280;36745;48.544;8.918;2023-05-22T07:40:15;97063.50;;;18.08;95.33
50774;BME280;36745;48.544;8.918;2023-05-22T07:43:35;97062.56;;;18.22;95.47
50774;BME280;36745;48.544;8.918;2023-05-22T07:46:54;97074.59;;;18.39;95.33
50774;BME280;36745;48.544;8.918;2023-05-22T07:50:15;97065.75;;;18.52;95.00
50774;BME280;36745;48.544;8.918;2023-05-22T07:53:35;97073.66;;;18.53;94.70
50774;BME280;36745;48.544;8.918;2023-05-22T07:56:54;97067.88;;;18.57;94.05
50774;BME280;36745;48.544;8.918;2023-05-22T08:00:15;97072.84;;;18.47;93.31
50774;BME280;36745;48.544;8.918;2023-05-22T08:03:35;97072.88;;;18.53;93.96
50774;BME280;36745;48.544;8.918;2023-05-22T08:06:55;97079.06;;;18.68;93.79
50774;BME280;36745;48.544;8.918;2023-05-22T08:10:16;97074.31;;;18.79;94.01
50774;BME280;36745;48.544;8.918;2023-05-22T08:13:36;97073.38;;;18.94;94.15
50774;BME280;36745;48.544;8.918;2023-05-22T08:16:57;97072.91;;;19.12;94.06
50774;BME280;36745;48.544;8.918;2023-05-22T08:20:17;97070.91;;;19.29;94.30
50774;BME280;36745;48.544;8.918;2023-05-22T08:23:37;97069.47;;;19.45;93.87
50774;BME280;36745;48.544;8.918;2023-05-22T08:26:57;97064.16;;;19.63;94.36
50774;BME280;36745;48.544;8.918;2023-05-22T08:30:17;97054.75;;;19.78;93.13
50774;BME280;36745;48.544;8.918;2023-05-22T08:33:36;97052.44;;;19.82;92.58
50774;BME280;36745;48.544;8.918;2023-05-22T08:36:56;97046.84;;;19.82;92.36
50774;BME280;36745;48.544;8.918;2023-05-22T08:40:19;97053.47;;;19.90;92.15
50774;BME280;36745;48.544;8.918;2023-05-22T08:43:40;97052.97;;;19.97;92.60
50774;BME280;36745;48.544;8.918;2023-05-22T08:47:00;97045.81;;;20.24;92.39
50774;BME280;36745;48.544;8.918;2023-05-22T08:50:20;97044.53;;;20.41;93.22
50774;BME280;36745;48.544;8.918;2023-05-22T08:53:41;97050.84;;;20.59;92.02
50774;BME280;36745;48.544;8.918;2023-05-22T08:57:03;97042.38;;;20.75;92.20
50774;BME280;36745;48.544;8.918;2023-05-22T09:00:23;97046.38;;;20.91;90.77
50774;BME280;36745;48.544;8.918;2023-05-22T09:03:45;97052.72;;;20.97;90.11
50774;BME280;36745;48.544;8.918;2023-05-22T09:07:08;97049.09;;;21.13;90.53
50774;BME280;36745;48.544;8.918;2023-05-22T09:10:27;97056.66;;;21.29;88.37
50774;BME280;36745;48.544;8.918;2023-05-22T09:13:47;97050.03;;;21.27;84.00
50774;BME280;36745;48.544;8.918;2023-05-22T09:17:10;97045.38;;;21.41;86.80
50774;BME280;36745;48.544;8.918;2023-05-22T09:20:39;97044.38;;;21.73;85.48
50774;BME280;36745;48.544;8.918;2023-05-22T09:23:59;97034.75;;;22.29;83.52
50774;BME280;36745;48.544;8.918;2023-05-22T09:27:21;97040.75;;;22.38;83.13
50774;BME280;36745;48.544;8.918;2023-05-22T09:30:41;97037.06;;;22.25;80.85
50774;BME280;36745;48.544;8.918;2023-05-22T09:34:03;97035.00;;;22.25;79.31
50774;BME280;36745;48.544;8.918;2023-05-22T09:37:23;97037.41;;;22.88;78.18
50774;BME280;36745;48.544;8.918;2023-05-22T09:40:52;97033.78;;;23.31;74.57
50774;BME280;36745;48.544;8.918;2023-05-22T09:44:13;97030.25;;;23.62;74.00
50774;BME280;36745;48.544;8.918;2023-05-22T09:47:33;97025.25;;;23.18;72.79
50774;BME280;36745;48.544;8.918;2023-05-22T09:50:53;97028.91;;;23.31;72.29
50774;BME280;36745;48.544;8.918;2023-05-22T09:54:15;97025.88;;;24.12;73.97
50774;BME280;36745;48.544;8.918;2023-05-22T09:57:41;97023.56;;;24.55;70.70
50774;BME280;36745;48.544;8.918;2023-05-22T10:01:03;97027.97;;;25.03;70.70
50774;BME280;36745;48.544;8.918;2023-05-22T10:04:24;97022.88;;;25.15;66.24
50774;BME280;36745;48.544;8.918;2023-05-22T10:07:50;97020.16;;;25.10;66.09
50774;BME280;36745;48.544;8.918;2023-05-22T10:11:13;97016.38;;;25.41;64.93
50774;BME280;36745;48.544;8.918;2023-05-22T10:14:34;97009.81;;;25.25;64.33
50774;BME280;36745;48.544;8.918;2023-05-22T10:17:54;97011.63;;;25.90;64.22
50774;BME280;36745;48.544;8.918;2023-05-22T10:21:15;97014.00;;;26.49;63.09
50774;BME280;36745;48.544;8.918;2023-05-22T10:24:35;97009.63;;;26.76;60.45
50774;BME280;36745;48.544;8.918;2023-05-22T10:27:57;97009.28;;;26.23;59.38
50774;BME280;36745;48.544;8.918;2023-05-22T10:35:18;97005.09;;;25.75;61.66
50774;BME280;36745;48.544;8.918;2023-05-22T10:42:14;96992.38;;;26.30;60.56
50774;BME280;36745;48.544;8.918;2023-05-22T10:45:34;96988.38;;;26.54;59.23
50774;BME280;36745;48.544;8.918;2023-05-22T10:48:56;96984.00;;;26.46;59.33
50774;BME280;36745;48.544;8.918;2023-05-22T10:52:16;96978.69;;;26.42;58.90
50774;BME280;36745;48.544;8.918;2023-05-22T10:55:49;96975.78;;;26.27;58.52
50774;BME280;36745;48.544;8.918;2023-05-22T10:59:09;96970.78;;;26.20;57.72
50774;BME280;36745;48.544;8.918;2023-05-22T11:02:29;96963.03;;;26.34;59.15
50774;BME280;36745;48.544;8.918;2023-05-22T11:05:55;96963.31;;;26.22;56.64
50774;BME280;36745;48.544;8.918;2023-05-22T11:09:39;96963.97;;;26.15;57.59
50774;BME280;36745;48.544;8.918;2023-05-22T11:13:10;96953.63;;;26.39;57.40
50774;BME280;36745;48.544;8.918;2023-05-22T11:16:32;96939.97;;;26.29;57.02
50774;BME280;36745;48.544;8.918;2023-05-22T11:20:20;96945.66;;;26.65;57.95
50774;BME280;36745;48.544;8.918;2023-05-22T11:23:40;96941.13;;;26.98;57.22
50774;BME280;36745;48.544;8.918;2023-05-22T11:27:03;96946.44;;;27.09;56.11
50774;BME280;36745;48.544;8.918;2023-05-22T11:30:24;96945.97;;;26.90;55.90
50774;BME280;36745;48.544;8.918;2023-05-22T11:33:47;96931.66;;;26.88;56.05
50774;BME280;36745;48.544;8.918;2023-05-22T11:37:08;96924.47;;;26.87;55.55
50774;BME280;36745;48.544;8.918;2023-05-22T11:40:28;96927.78;;;26.78;54.20
50774;BME280;36745;48.544;8.918;2023-05-22T11:43:48;96916.97;;;26.25;54.36
50774;BME280;36745;48.544;8.918;2023-05-22T11:47:08;96915.66;;;26.62;55.14
50774;BME280;36745;48.544;8.918;2023-05-22T11:50:27;96914.78;;;26.75;53.02
50774;BME280;36745;48.544;8.918;2023-05-22T11:53:47;96915.88;;;26.64;53.23
50774;BME280;36745;48.544;8.918;2023-05-22T11:57:07;96911.63;;;26.86;52.89
50774;BME280;36745;48.544;8.918;2023-05-22T12:00:27;96915.00;;;26.77;49.68
50774;BME280;36745;48.544;8.918;2023-05-22T12:03:48;96900.91;;;26.49;49.43
50774;BME280;36745;48.544;8.918;2023-05-22T12:07:08;96904.84;;;26.46;50.65
50774;BME280;36745;48.544;8.918;2023-05-22T12:10:29;96908.59;;;26.41;50.13
50774;BME280;36745;48.544;8.918;2023-05-22T12:13:59;96904.06;;;26.38;49.52
50774;BME280;36745;48.544;8.918;2023-05-22T12:17:19;96902.16;;;26.33;49.24
50774;BME280;36745;48.544;8.918;2023-05-22T12:20:42;96909.22;;;26.54;47.67
50774;BME280;36745;48.544;8.918;2023-05-22T12:24:03;96912.53;;;26.38;48.90
50774;BME280;36745;48.544;8.918;2023-05-22T12:27:23;96917.66;;;26.18;46.59
50774;BME280;36745;48.544;8.918;2023-05-22T12:30:43;96908.84;;;26.58;48.29
50774;BME280;36745;48.544;8.918;2023-05-22T12:34:05;96917.06;;;26.84;47.91
50774;BME280;36745;48.544;8.918;2023-05-22T12:37:25;96907.94;;;26.99;47.29
50774;BME280;36745;48.544;8.918;2023-05-22T12:40:46;96907.38;;;26.64;44.40
50774;BME280;36745;48.544;8.918;2023-05-22T12:44:06;96908.41;;;26.39;44.99
50774;BME280;36745;48.544;8.918;2023-05-22T12:47:26;96908.50;;;26.61;46.14
50774;BME280;36745;48.544;8.918;2023-05-22T12:50:46;96907.06;;;26.83;46.98
50774;BME280;36745;48.544;8.918;2023-05-22T12:54:06;96906.25;;;27.03;47.53
50774;BME280;36745;48.544;8.918;2023-05-22T12:57:25;96902.66;;;27.10;47.32
50774;BME280;36745;48.544;8.918;2023-05-22T13:00:45;96906.03;;;27.01;46.89
50774;BME280;36745;48.544;8.918;2023-05-22T13:04:05;96906.38;;;26.90;46.05
50774;BME280;36745;48.544;8.918;2023-05-22T13:07:25;96909.03;;;26.96;46.35
50774;BME280;36745;48.544;8.918;2023-05-22T13:10:45;96916.19;;;26.89;45.79
50774;BME280;36745;48.544;8.918;2023-05-22T13:14:04;96913.56;;;26.91;45.63
50774;BME280;36745;48.544;8.918;2023-05-22T13:17:25;96905.53;;;26.74;45.81
50774;BME280;36745;48.544;8.918;2023-05-22T13:20:45;96903.75;;;26.92;46.19
50774;BME280;36745;48.544;8.918;2023-05-22T13:24:04;96914.25;;;26.84;44.39
50774;BME280;36745;48.544;8.918;2023-05-22T13:27:24;96910.06;;;26.70;43.91
50774;BME280;36745;48.544;8.918;2023-05-22T13:30:45;96903.69;;;26.85;44.78
50774;BME280;36745;48.544;8.918;2023-05-22T13:34:05;96891.69;;;26.99;44.44
50774;BME280;36745;48.544;8.918;2023-05-22T13:37:25;96902.69;;;27.26;44.70
50774;BME280;36745;48.544;8.918;2023-05-22T13:40:45;96896.66;;;27.29;44.49
50774;BME280;36745;48.544;8.918;2023-05-22T13:44:05;96906.75;;;26.94;42.61
50774;BME280;36745;48.544;8.918;2023-05-22T13:47:25;96913.84;;;26.80;43.67
50774;BME280;36745;48.544;8.918;2023-05-22T13:50:44;96909.09;;;27.19;42.19
50774;BME280;36745;48.544;8.918;2023-05-22T13:54:04;96932.84;;;27.08;42.81
50774;BME280;36745;48.544;8.918;2023-05-22T13:57:24;96934.38;;;27.17;44.93
50774;BME280;36745;48.544;8.918;2023-05-22T14:00:44;96937.25;;;26.81;45.79
50774;BME280;36745;48.544;8.918;2023-05-22T14:04:04;96958.38;;;26.44;45.90
50774;BME280;36745;48.544;8.918;2023-05-22T14:07:24;96966.28;;;25.75;46.40
50774;BME280;36745;48.544;8.918;2023-05-22T14:10:43;96965.59;;;25.07;46.43
50774;BME280;36745;48.544;8.918;2023-05-22T14:14:03;96985.91;;;24.79;47.29
50774;BME280;36745;48.544;8.918;2023-05-22T14:17:23;96981.81;;;24.54;49.10
50774;BME280;36745;48.544;8.918;2023-05-22T14:20:44;96975.50;;;24.35;49.58
50774;BME280;36745;48.544;8.918;2023-05-22T14:24:04;96975.59;;;24.16;48.80
50774;BME280;36745;48.544;8.918;2023-05-22T14:27:24;96996.38;;;24.00;49.50
50774;BME280;36745;48.544;8.918;2023-05-22T14:30:44;97005.69;;;23.95;49.49
50774;BME280;36745;48.544;8.918;2023-05-22T14:34:04;97021.59;;;23.60;50.09
50774;BME280;36745;48.544;8.918;2023-05-22T14:37:24;97028.00;;;23.42;50.38
50774;BME280;36745;48.544;8.918;2023-05-22T14:40:44;97044.09;;;23.23;51.35
50774;BME280;36745;48.544;8.918;2023-05-22T14:44:03;97062.66;;;23.13;52.00
50774;BME280;36745;48.544;8.918;2023-05-22T14:47:24;97058.53;;;22.95;53.69
50774;BME280;36745;48.544;8.918;2023-05-22T14:50:45;97050.19;;;22.65;54.46
50774;BME280;36745;48.544;8.918;2023-05-22T14:54:05;97034.38;;;22.38;55.63
50774;BME280;36745;48.544;8.918;2023-05-22T14:57:24;97031.03;;;22.15;54.96
50774;BME280;36745;48.544;8.918;2023-05-22T15:00:44;97038.16;;;21.86;54.83
50774;BME280;36745;48.544;8.918;2023-05-22T15:04:05;97034.47;;;21.67;55.20
50774;BME280;36745;48.544;8.918;2023-05-22T15:07:27;97028.97;;;21.56;55.04
50774;BME280;36745;48.544;8.918;2023-05-22T15:10:47;97017.63;;;21.37;55.01
50774;BME280;36745;48.544;8.918;2023-05-22T15:14:07;97007.63;;;21.47;55.98
50774;BME280;36745;48.544;8.918;2023-05-22T15:17:26;96999.94;;;21.53;58.58
50774;BME280;36745;48.544;8.918;2023-05-22T15:20:46;96992.19;;;21.59;57.83
50774;BME280;36745;48.544;8.918;2023-05-22T15:24:07;96985.69;;;21.46;60.51
50774;BME280;36745;48.544;8.918;2023-05-22T15:27:26;96981.69;;;21.35;63.26
50774;BME280;36745;48.544;8.918;2023-05-22T15:30:46;96971.50;;;21.32;66.19
50774;BME280;36745;48.544;8.918;2023-05-22T15:34:06;96962.78;;;21.42;68.11
50774;BME280;36745;48.544;8.918;2023-05-22T15:37:26;96959.72;;;21.40;67.17
50774;BME280;36745;48.544;8.918;2023-05-22T15:40:46;96942.00;;;21.26;67.28
50774;BME280;36745;48.544;8.918;2023-05-22T15:44:09;96927.81;;;21.07;68.86
50774;BME280;36745;48.544;8.918;2023-05-22T15:47:29;96937.50;;;21.06;72.22
50774;BME280;36745;48.544;8.918;2023-05-22T15:50:49;96933.50;;;20.96;70.12
50774;BME280;36745;48.544;8.918;2023-05-22T15:54:09;96918.41;;;20.64;69.78
50774;BME280;36745;48.544;8.918;2023-05-22T15:57:29;96915.22;;;20.43;71.60
50774;BME280;36745;48.544;8.918;2023-05-22T16:00:49;96913.88;;;20.61;72.88
50774;BME280;36745;48.544;8.918;2023-05-22T16:04:08;96912.63;;;20.56;71.02
50774;BME280;36745;48.544;8.918;2023-05-22T16:07:28;96941.06;;;20.66;73.03
50774;BME280;36745;48.544;8.918;2023-05-22T16:10:48;96954.63;;;20.56;71.26
50774;BME280;36745;48.544;8.918;2023-05-22T16:14:08;96955.19;;;20.43;71.77
50774;BME280;36745;48.544;8.918;2023-05-22T16:17:28;96977.88;;;20.34;72.83
50774;BME280;36745;48.544;8.918;2023-05-22T16:20:47;97000.91;;;20.63;74.48
50774;BME280;36745;48.544;8.918;2023-05-22T16:24:07;97005.16;;;20.86;74.46
50774;BME280;36745;48.544;8.918;2023-05-22T16:27:28;97003.50;;;20.55;73.45
50774;BME280;36745;48.544;8.918;2023-05-22T16:30:48;96989.56;;;20.38;76.23
50774;BME280;36745;48.544;8.918;2023-05-22T16:34:07;96975.97;;;20.65;75.68
50774;BME280;36745;48.544;8.918;2023-05-22T16:37:27;96960.28;;;20.91;76.08
50774;BME280;36745;48.544;8.918;2023-05-22T16:40:47;96952.63;;;20.98;75.94
50774;BME280;36745;48.544;8.918;2023-05-22T16:44:07;96950.28;;;21.02;76.92
50774;BME280;36745;48.544;8.918;2023-05-22T16:47:27;96970.69;;;20.97;75.73
50774;BME280;36745;48.544;8.918;2023-05-22T16:50:48;96971.81;;;20.82;75.34
50774;BME280;36745;48.544;8.918;2023-05-22T16:54:07;96961.91;;;20.76;76.09
50774;BME280;36745;48.544;8.918;2023-05-22T16:57:27;96956.03;;;20.74;75.15
50774;BME280;36745;48.544;8.918;2023-05-22T17:00:47;96954.19;;;20.87;76.32
50774;BME280;36745;48.544;8.918;2023-05-22T17:04:07;96950.25;;;21.07;76.55
50774;BME280;36745;48.544;8.918;2023-05-22T17:07:27;96946.13;;;21.19;75.61
50774;BME280;36745;48.544;8.918;2023-05-22T17:14:09;96946.66;;;21.12;76.85
50774;BME280;36745;48.544;8.918;2023-05-22T17:17:29;96950.78;;;21.00;75.43
50774;BME280;36745;48.544;8.918;2023-05-22T17:20:50;96964.69;;;20.76;77.26
50774;BME280;36745;48.544;8.918;2023-05-22T17:24:12;96962.94;;;20.73;77.04
50774;BME280;36745;48.544;8.918;2023-05-22T17:27:32;96968.28;;;20.71;78.04
50774;BME280;36745;48.544;8.918;2023-05-22T17:30:52;96970.84;;;20.69;78.88
50774;BME280;36745;48.544;8.918;2023-05-22T17:34:12;96975.97;;;20.65;77.83
50774;BME280;36745;48.544;8.918;2023-05-22T17:37:32;96980.34;;;20.55;79.58
50774;BME280;36745;48.544;8.918;2023-05-22T17:40:52;96981.84;;;20.61;80.66
50774;BME280;36745;48.544;8.918;2023-05-22T17:44:11;96998.88;;;20.63;81.03
50774;BME280;36745;48.544;8.918;2023-05-22T17:47:31;96995.06;;;20.66;81.68
50774;BME280;36745;48.544;8.918;2023-05-22T17:50:51;96996.84;;;20.64;82.52
50774;BME280;36745;48.544;8.918;2023-05-22T17:54:14;96995.31;;;20.63;83.07
50774;BME280;36745;48.544;8.918;2023-05-22T17:57:33;96997.88;;;20.61;83.50
50774;BME280;36745;48.544;8.918;2023-05-22T18:00:53;97001.19;;;20.59;83.55
50774;BME280;36745;48.544;8.918;2023-05-22T18:04:13;97012.91;;;20.58;82.51
50774;BME280;36745;48.544;8.918;2023-05-22T18:07:33;97022.63;;;20.51;83.98